createdAt,value
2022-12-15T00:00:49.888Z,9.50
2022-12-15T00:03:50.889Z,9.46
2022-12-15T00:06:52.299Z,9.38
2022-12-15T00:09:53.115Z,9.50
2022-12-15T00:12:55.625Z,9.21
2022-12-15T00:15:56.877Z,9.27
2022-12-15T00:18:57.689Z,9.44
2022-12-15T00:21:59.116Z,9.39
2022-12-15T00:24:59.882Z,9.20
2022-12-15T00:28:02.413Z,9.52
2022-12-15T00:31:03.904Z,9.52
2022-12-15T00:34:05.280Z,9.47
2022-12-15T00:37:06.245Z,9.60
2022-12-15T00:39:58.840Z,9.56
2022-12-15T00:42:42.599Z,9.71
2022-12-15T00:45:47.779Z,9.71
2022-12-15T00:48:30.590Z,9.66
2022-12-15T00:51:14.926Z,9.46
2022-12-15T00:54:18.142Z,9.53
2022-12-15T00:57:19.737Z,9.37
2022-12-15T01:00:21.137Z,9.61
2022-12-15T01:03:30.555Z,9.65
2022-12-15T01:06:35.039Z,9.54
2022-12-15T01:09:36.543Z,9.51
2022-12-15T01:12:38.075Z,9.57
2022-12-15T01:15:39.587Z,9.63
2022-12-15T01:18:42.779Z,9.62
2022-12-15T01:21:26.927Z,9.67
2022-12-15T01:24:10.751Z,9.49
2022-12-15T01:26:54.654Z,9.28
2022-12-15T01:29:38.444Z,9.73
2022-12-15T01:32:22.208Z,9.88
2022-12-15T01:35:08.802Z,9.87
2022-12-15T01:37:52.624Z,9.80
2022-12-15T01:40:46.152Z,9.88
2022-12-15T01:43:32.678Z,9.96
2022-12-15T01:46:18.781Z,9.91
2022-12-15T01:49:15.723Z,9.62
2022-12-15T01:52:03.337Z,9.87
2022-12-15T01:54:51.049Z,9.83
2022-12-15T01:57:36.680Z,9.73
2022-12-15T02:00:20.594Z,9.68
2022-12-15T02:03:07.782Z,9.70
2022-12-15T02:05:53.407Z,9.52
2022-12-15T02:08:39.231Z,9.28
2022-12-15T02:11:53.580Z,9.68
2022-12-15T02:14:52.271Z,9.77
2022-12-15T02:17:42.270Z,9.68
2022-12-15T02:20:51.260Z,9.86
2022-12-15T02:24:08.067Z,9.81
2022-12-15T02:27:16.953Z,9.70
2022-12-15T02:30:22.020Z,9.68
2022-12-15T02:33:12.543Z,9.72
2022-12-15T02:36:00.649Z,9.71
2022-12-15T02:38:45.170Z,9.90
2022-12-15T02:41:37.990Z,9.79
2022-12-15T02:44:27.857Z,9.85
2022-12-15T02:47:22.244Z,9.69
2022-12-15T02:50:27.545Z,9.50
2022-12-15T02:53:30.822Z,9.79
2022-12-15T02:56:24.110Z,10.05
2022-12-15T02:59:12.084Z,9.82
2022-12-15T03:02:00.901Z,9.92
2022-12-15T03:04:46.271Z,9.85
2022-12-15T03:07:30.001Z,9.93
2022-12-15T03:10:15.356Z,9.69
2022-12-15T03:13:00.075Z,10.04
2022-12-15T03:15:43.841Z,10.11
2022-12-15T03:18:27.519Z,9.97
2022-12-15T03:21:12.611Z,10.00
2022-12-15T03:23:56.370Z,10.23
2022-12-15T03:26:40.028Z,9.94
2022-12-15T03:29:23.942Z,10.16
2022-12-15T03:32:08.395Z,10.11
2022-12-15T03:34:52.088Z,9.99
2022-12-15T03:37:37.205Z,10.15
2022-12-15T03:40:20.969Z,10.24
2022-12-15T03:43:04.729Z,10.19
2022-12-15T03:45:48.518Z,9.81
2022-12-15T03:48:32.154Z,9.66
2022-12-15T03:51:15.852Z,9.73
2022-12-15T03:54:01.236Z,9.35
2022-12-15T03:56:45.646Z,9.42
2022-12-15T03:59:29.354Z,9.79
2022-12-15T04:02:14.686Z,9.91
2022-12-15T04:04:58.520Z,9.85
2022-12-15T04:07:42.300Z,9.76
2022-12-15T04:10:33.900Z,9.66
2022-12-15T04:13:18.873Z,9.73
2022-12-15T04:16:03.140Z,9.90
2022-12-15T04:18:46.907Z,9.85
2022-12-15T04:21:29.592Z,9.95
2022-12-15T04:24:30.903Z,9.96
2022-12-15T04:27:33.243Z,9.83
2022-12-15T04:30:34.962Z,9.84
2022-12-15T04:33:36.821Z,9.76
2022-12-15T04:36:38.502Z,9.82
2022-12-15T04:39:39.758Z,9.78
2022-12-15T04:42:43.629Z,9.82
2022-12-15T04:45:44.589Z,9.94
2022-12-15T04:48:45.415Z,9.86
2022-12-15T04:51:46.340Z,8.78
2022-12-15T04:54:47.393Z,9.68
2022-12-15T04:57:49.868Z,9.74
2022-12-15T05:00:51.344Z,9.55
2022-12-15T05:03:52.152Z,9.75
2022-12-15T05:06:53.327Z,9.43
2022-12-15T05:09:57.313Z,9.53
2022-12-15T05:13:03.441Z,9.35
2022-12-15T05:16:04.632Z,9.63
2022-12-15T05:19:05.540Z,9.66
2022-12-15T05:22:06.910Z,9.55
2022-12-15T05:25:07.759Z,9.83
2022-12-15T05:28:10.630Z,9.77
2022-12-15T05:31:12.065Z,9.80
2022-12-15T05:34:02.634Z,9.60
2022-12-15T05:36:49.244Z,9.63
2022-12-15T05:39:33.072Z,9.81
2022-12-15T05:42:16.791Z,9.78
2022-12-15T05:45:01.916Z,9.82
2022-12-15T05:47:53.911Z,9.92
2022-12-15T05:50:37.613Z,9.65
2022-12-15T05:53:23.401Z,9.82
2022-12-15T05:56:09.213Z,9.81
2022-12-15T05:58:53.049Z,9.90
2022-12-15T06:01:38.285Z,9.91
2022-12-15T06:04:22.104Z,9.97
2022-12-15T06:07:05.936Z,9.87
2022-12-15T06:09:49.951Z,9.89
2022-12-15T06:12:33.659Z,10.06
2022-12-15T06:15:17.819Z,10.16
2022-12-15T06:18:02.889Z,10.20
2022-12-15T06:20:46.574Z,10.32
2022-12-15T06:23:34.350Z,10.16
2022-12-15T06:26:21.684Z,10.14
2022-12-15T06:29:07.759Z,10.29
2022-12-15T06:31:51.768Z,10.33
2022-12-15T06:34:37.203Z,10.39
2022-12-15T06:37:21.104Z,10.31
2022-12-15T06:40:05.399Z,10.67
2022-12-15T06:42:49.209Z,10.56
2022-12-15T06:45:32.944Z,10.63
2022-12-15T06:48:16.774Z,10.67
2022-12-15T06:51:06.220Z,10.63
2022-12-15T06:53:52.672Z,10.31
2022-12-15T06:56:37.507Z,10.50
2022-12-15T06:59:21.278Z,10.97
2022-12-15T07:02:05.026Z,11.06
2022-12-15T07:04:48.789Z,10.91
2022-12-15T07:07:33.901Z,10.74
2022-12-15T07:10:17.930Z,11.21
2022-12-15T07:13:01.636Z,11.38
2022-12-15T07:15:45.447Z,11.49
2022-12-15T07:18:29.664Z,11.59
2022-12-15T07:21:13.874Z,11.66
2022-12-15T07:23:59.808Z,11.83
2022-12-15T07:26:46.140Z,11.97
2022-12-15T07:29:32.999Z,12.19
2022-12-15T07:32:16.943Z,12.00
2022-12-15T07:35:00.857Z,11.53
2022-12-15T07:37:44.723Z,11.86
2022-12-15T07:40:29.798Z,11.49
2022-12-15T07:43:13.531Z,11.40
2022-12-15T07:45:57.338Z,11.17
2022-12-15T07:48:41.089Z,11.73
2022-12-15T07:51:24.747Z,11.97
2022-12-15T07:54:08.893Z,11.24
2022-12-15T07:56:54.088Z,12.31
2022-12-15T07:59:38.147Z,12.15
2022-12-15T08:02:22.143Z,12.32
2022-12-15T08:05:06.604Z,12.57
2022-12-15T08:07:50.357Z,12.20
2022-12-15T08:10:34.243Z,12.18
2022-12-15T08:13:52.480Z,12.02
2022-12-15T08:16:23.361Z,12.34
2022-12-15T08:19:08.539Z,11.99
2022-12-15T08:21:52.271Z,11.83
2022-12-15T08:24:36.132Z,12.16
2022-12-15T08:27:21.708Z,11.88
2022-12-15T08:30:09.145Z,12.11
2022-12-15T08:32:53.375Z,12.10
2022-12-15T08:35:56.438Z,11.18
2022-12-15T08:38:42.143Z,11.95
2022-12-15T08:41:28.327Z,11.27
2022-12-15T08:44:12.311Z,11.39
2022-12-15T08:46:57.659Z,11.04
2022-12-15T08:49:41.606Z,11.07
2022-12-15T08:52:25.773Z,10.78
2022-12-15T08:55:15.612Z,10.74
2022-12-15T08:58:02.095Z,11.23
2022-12-15T09:00:46.182Z,10.80
2022-12-15T09:03:32.140Z,10.11
2022-12-15T09:06:19.400Z,10.36
2022-12-15T09:09:07.336Z,10.43
2022-12-15T09:11:51.887Z,9.89
2022-12-15T09:14:35.939Z,10.15
2022-12-15T09:17:19.953Z,10.17
2022-12-15T09:20:05.808Z,10.02
2022-12-15T09:22:50.417Z,10.49
2022-12-15T09:25:34.237Z,10.77
2022-12-15T09:28:17.945Z,10.92
2022-12-15T09:31:04.088Z,10.80
2022-12-15T09:33:48.153Z,10.86
2022-12-15T09:36:33.664Z,10.52
2022-12-15T09:39:17.443Z,10.45
2022-12-15T09:42:02.362Z,10.57
2022-12-15T09:44:46.391Z,9.47
2022-12-15T09:47:40.846Z,10.16
2022-12-15T09:50:30.520Z,9.73
2022-12-15T09:53:53.085Z,9.98
2022-12-15T09:56:28.572Z,10.13
2022-12-15T09:59:25.501Z,10.15
2022-12-15T10:02:33.429Z,10.24
2022-12-15T10:05:38.106Z,9.97
2022-12-15T10:08:34.235Z,10.01
2022-12-15T10:11:22.863Z,9.89
2022-12-15T10:14:17.984Z,10.07
2022-12-15T10:17:08.209Z,9.78
2022-12-15T10:19:57.185Z,9.90
2022-12-15T10:22:41.256Z,9.89
2022-12-15T10:25:30.887Z,9.90
2022-12-15T10:28:34.893Z,9.77
2022-12-15T10:31:25.796Z,10.28
2022-12-15T10:34:12.149Z,10.27
2022-12-15T10:36:57.877Z,9.98
2022-12-15T10:39:43.283Z,10.16
2022-12-15T10:42:29.890Z,10.14
2022-12-15T10:45:33.204Z,10.17
2022-12-15T10:48:21.462Z,9.72
2022-12-15T10:51:29.082Z,10.17
2022-12-15T10:54:15.151Z,10.16
2022-12-15T10:57:00.638Z,9.94
2022-12-15T10:59:45.886Z,9.67
2022-12-15T11:02:37.056Z,9.96
2022-12-15T11:05:21.914Z,9.78
2022-12-15T11:08:16.710Z,9.12
2022-12-15T11:11:18.285Z,9.53
2022-12-15T11:14:07.311Z,9.39
2022-12-15T11:16:55.492Z,8.93
2022-12-15T11:19:45.261Z,9.43
2022-12-15T11:22:36.602Z,9.69
2022-12-15T11:25:30.200Z,9.48
2022-12-15T11:28:19.653Z,9.79
2022-12-15T11:31:13.190Z,10.22
2022-12-15T11:33:58.426Z,9.87
2022-12-15T11:37:07.464Z,9.21
2022-12-15T11:40:04.693Z,9.39
2022-12-15T11:43:01.861Z,9.59
2022-12-15T11:45:57.410Z,9.44
2022-12-15T11:48:50.121Z,9.76
2022-12-15T11:51:43.728Z,10.29
2022-12-15T11:54:31.308Z,10.37
2022-12-15T11:57:37.319Z,10.47
2022-12-15T12:00:22.453Z,10.56
2022-12-15T12:03:21.138Z,10.42
2022-12-15T12:06:12.132Z,10.52
2022-12-15T12:09:09.533Z,10.37
2022-12-15T12:11:58.022Z,9.97
2022-12-15T12:14:51.394Z,9.79
2022-12-15T12:17:44.742Z,10.14
2022-12-15T12:20:36.695Z,10.02
2022-12-15T12:23:26.304Z,9.83
2022-12-15T12:26:18.211Z,10.09
2022-12-15T12:29:06.852Z,9.90
2022-12-15T12:32:04.525Z,9.21
2022-12-15T12:35:31.433Z,9.56
2022-12-15T12:38:07.921Z,9.53
2022-12-15T12:41:00.915Z,9.74
2022-12-15T12:43:50.529Z,10.03
2022-12-15T12:46:40.580Z,9.57
2022-12-15T12:49:30.411Z,10.42
2022-12-15T12:52:23.461Z,10.48
2022-12-15T12:55:26.399Z,10.81
2022-12-15T12:58:35.413Z,10.29
2022-12-15T13:01:28.680Z,10.01
2022-12-15T13:04:14.555Z,10.20
2022-12-15T13:07:02.814Z,10.17
2022-12-15T13:10:02.127Z,9.94
2022-12-15T13:12:52.318Z,9.61
2022-12-15T13:15:40.988Z,9.45
2022-12-15T13:18:29.575Z,9.59
2022-12-15T13:21:36.806Z,10.49
2022-12-15T13:24:28.977Z,10.48
2022-12-15T13:27:15.478Z,10.64
2022-12-15T13:30:02.383Z,11.15
2022-12-15T13:32:55.277Z,11.13
2022-12-15T13:35:43.653Z,10.86
2022-12-15T13:38:55.831Z,10.37
2022-12-15T13:41:54.282Z,9.74
2022-12-15T13:44:48.671Z,9.94
2022-12-15T13:47:32.799Z,9.96
2022-12-15T13:50:21.358Z,10.35
2022-12-15T13:53:19.865Z,10.45
2022-12-15T13:56:22.596Z,10.35
2022-12-15T13:59:17.513Z,9.96
2022-12-15T14:02:01.767Z,9.99
2022-12-15T14:04:45.579Z,9.97
2022-12-15T14:07:30.308Z,9.85
2022-12-15T14:10:21.786Z,9.89
2022-12-15T14:13:16.071Z,9.51
2022-12-15T14:16:05.460Z,9.84
2022-12-15T14:19:06.466Z,9.63
2022-12-15T14:21:52.006Z,9.58
2022-12-15T14:24:44.745Z,8.64
2022-12-15T14:27:32.807Z,9.29
2022-12-15T14:30:24.869Z,9.36
2022-12-15T14:33:14.757Z,9.13
2022-12-15T14:36:01.327Z,9.15
2022-12-15T14:38:49.552Z,9.01
2022-12-15T14:41:36.585Z,8.77
2022-12-15T14:44:36.489Z,8.49
2022-12-15T14:47:24.927Z,8.29
2022-12-15T14:50:13.036Z,8.22
2022-12-15T14:53:01.554Z,8.12
2022-12-15T14:55:46.498Z,8.15
2022-12-15T14:58:34.570Z,8.02
2022-12-15T15:01:30.038Z,7.78
2022-12-15T15:04:26.358Z,8.02
2022-12-15T15:07:18.904Z,7.85
2022-12-15T15:10:05.003Z,7.32
2022-12-15T15:12:50.198Z,7.57
2022-12-15T15:15:34.363Z,6.50
2022-12-15T15:18:27.480Z,6.87
2022-12-15T15:21:21.101Z,6.73
2022-12-15T15:24:22.762Z,6.50
2022-12-15T15:27:24.698Z,6.69
2022-12-15T15:30:17.285Z,6.82
2022-12-15T15:33:02.344Z,6.86
2022-12-15T15:35:51.190Z,6.54
2022-12-15T15:38:40.884Z,6.70
2022-12-15T15:41:30.823Z,6.56
2022-12-15T15:44:16.706Z,7.00
2022-12-15T15:47:01.343Z,7.14
2022-12-15T15:49:46.747Z,7.23
2022-12-15T15:52:32.465Z,7.20
2022-12-15T15:55:20.407Z,7.20
2022-12-15T15:58:11.365Z,6.88
2022-12-15T16:00:55.725Z,6.95
2022-12-15T16:03:40.106Z,6.98
2022-12-15T16:06:24.780Z,6.97
2022-12-15T16:09:13.908Z,6.98
2022-12-15T16:11:59.590Z,7.16
2022-12-15T16:14:43.637Z,7.17
2022-12-15T16:17:28.394Z,6.86
2022-12-15T16:20:17.496Z,7.07
2022-12-15T16:23:04.810Z,6.70
2022-12-15T16:25:53.963Z,7.10
2022-12-15T16:28:37.927Z,7.10
2022-12-15T16:31:35.465Z,7.07
2022-12-15T16:34:24.930Z,6.77
2022-12-15T16:37:22.865Z,6.70
2022-12-15T16:40:16.739Z,6.47
2022-12-15T16:43:03.373Z,6.85
2022-12-15T16:45:50.106Z,6.63
2022-12-15T16:48:34.555Z,6.59
2022-12-15T16:51:28.714Z,6.47
2022-12-15T16:54:19.278Z,6.50
2022-12-15T16:57:03.962Z,6.77
2022-12-15T16:59:49.979Z,6.79
2022-12-15T17:02:34.696Z,6.72
2022-12-15T17:05:19.406Z,6.85
2022-12-15T17:08:07.452Z,6.87
2022-12-15T17:10:52.495Z,6.81
2022-12-15T17:13:45.449Z,7.01
2022-12-15T17:16:31.509Z,7.01
2022-12-15T17:19:20.871Z,6.57
2022-12-15T17:22:05.357Z,6.36
2022-12-15T17:24:49.393Z,6.65
2022-12-15T17:27:33.380Z,6.68
2022-12-15T17:30:17.612Z,6.55
2022-12-15T17:33:02.805Z,6.19
2022-12-15T17:35:47.584Z,6.10
2022-12-15T17:38:31.642Z,6.31
2022-12-15T17:41:42.324Z,6.38
2022-12-15T17:44:38.837Z,5.94
2022-12-15T17:47:24.244Z,5.77
2022-12-15T17:50:11.171Z,6.02
2022-12-15T17:52:55.035Z,5.83
2022-12-15T17:55:38.954Z,5.73
2022-12-15T17:58:25.367Z,5.37
2022-12-15T18:01:13.234Z,5.38
2022-12-15T18:03:56.987Z,5.09
2022-12-15T18:06:44.641Z,5.10
2022-12-15T18:09:28.726Z,4.93
2022-12-15T18:12:19.208Z,5.14
2022-12-15T18:15:03.051Z,4.99
2022-12-15T18:17:47.593Z,5.09
2022-12-15T18:20:31.393Z,5.14
2022-12-15T18:23:19.224Z,5.28
2022-12-15T18:26:03.473Z,5.42
2022-12-15T18:28:47.300Z,5.13
2022-12-15T18:31:31.885Z,4.84
2022-12-15T18:34:18.116Z,5.06
2022-12-15T18:37:01.893Z,4.89
2022-12-15T18:39:47.679Z,5.09
2022-12-15T18:42:31.458Z,4.43
2022-12-15T18:45:20.961Z,5.21
2022-12-15T18:48:16.299Z,5.41
2022-12-15T18:51:02.916Z,5.47
2022-12-15T18:53:48.834Z,5.06
2022-12-15T18:56:34.090Z,5.40
2022-12-15T18:59:19.330Z,5.64
2022-12-15T19:02:03.270Z,5.47
2022-12-15T19:04:47.181Z,5.63
2022-12-15T19:07:30.973Z,5.49
2022-12-15T19:10:15.803Z,5.29
2022-12-15T19:13:01.297Z,5.27
2022-12-15T19:15:46.176Z,4.92
2022-12-15T19:18:47.388Z,4.80
2022-12-15T19:21:50.734Z,5.06
2022-12-15T19:24:52.129Z,5.14
2022-12-15T19:27:35.912Z,4.97
2022-12-15T19:30:22.175Z,4.92
2022-12-15T19:33:06.041Z,4.59
2022-12-15T19:35:54.926Z,4.93
2022-12-15T19:38:38.631Z,5.24
2022-12-15T19:41:22.417Z,4.90
2022-12-15T19:44:14.736Z,4.82
2022-12-15T19:46:59.945Z,4.80
2022-12-15T19:49:44.434Z,4.89
2022-12-15T19:52:29.154Z,5.17
2022-12-15T19:55:16.984Z,5.23
2022-12-15T19:58:01.037Z,4.83
2022-12-15T20:00:44.950Z,4.84
2022-12-15T20:03:31.562Z,4.66
2022-12-15T20:06:18.124Z,4.39
2022-12-15T20:09:02.919Z,4.35
2022-12-15T20:11:47.535Z,4.27
2022-12-15T20:14:31.462Z,4.24
2022-12-15T20:17:15.634Z,4.48
2022-12-15T20:20:01.029Z,4.91
2022-12-15T20:22:49.534Z,5.12
2022-12-15T20:25:37.709Z,4.68
2022-12-15T20:28:24.805Z,4.82
2022-12-15T20:31:08.627Z,4.89
2022-12-15T20:33:53.402Z,4.73
2022-12-15T20:36:39.186Z,4.81
2022-12-15T20:39:26.909Z,5.30
2022-12-15T20:42:14.793Z,5.41
2022-12-15T20:44:58.803Z,5.44
2022-12-15T20:47:44.900Z,5.18
2022-12-15T20:50:35.023Z,5.47
2022-12-15T20:53:22.000Z,5.84
2022-12-15T20:56:06.596Z,5.89
2022-12-15T20:58:50.605Z,5.81
2022-12-15T21:01:37.103Z,5.92
2022-12-15T21:04:26.000Z,5.95
2022-12-15T21:07:12.199Z,5.39
2022-12-15T21:09:57.371Z,5.30
2022-12-15T21:12:42.259Z,5.06
2022-12-15T21:15:26.119Z,5.21
2022-12-15T21:18:57.144Z,5.44
2022-12-15T21:21:21.014Z,5.18
2022-12-15T21:24:14.815Z,5.37
2022-12-15T21:27:01.631Z,5.41
2022-12-15T21:29:51.941Z,5.64
2022-12-15T21:32:36.348Z,5.23
2022-12-15T21:35:20.517Z,5.58
2022-12-15T21:38:05.919Z,5.15
2022-12-15T21:40:53.263Z,5.51
2022-12-15T21:43:43.915Z,5.34
2022-12-15T21:46:29.891Z,5.38
2022-12-15T21:49:15.121Z,5.06
2022-12-15T21:52:01.409Z,5.11
2022-12-15T21:54:45.653Z,4.20
2022-12-15T21:57:29.647Z,4.20
2022-12-15T22:00:18.049Z,4.47
2022-12-15T22:03:02.216Z,4.59
2022-12-15T22:05:46.440Z,4.42
2022-12-15T22:08:30.717Z,4.89
2022-12-15T22:11:21.570Z,4.65
2022-12-15T22:14:17.740Z,4.40
2022-12-15T22:17:15.522Z,4.70
2022-12-15T22:19:59.967Z,4.51
2022-12-15T22:22:44.200Z,4.48
2022-12-15T22:25:28.490Z,4.25
2022-12-15T22:28:23.469Z,4.43
2022-12-15T22:31:08.284Z,4.64
2022-12-15T22:33:54.595Z,4.80
2022-12-15T22:36:39.107Z,4.62
2022-12-15T22:39:23.104Z,4.78
2022-12-15T22:42:07.598Z,4.65
2022-12-15T22:44:52.805Z,4.79
2022-12-15T22:47:39.114Z,5.09
2022-12-15T22:50:27.530Z,5.16
2022-12-15T22:53:14.882Z,4.81
2022-12-15T22:56:00.804Z,4.95
2022-12-15T22:58:48.705Z,4.93
2022-12-15T23:01:33.074Z,5.01
2022-12-15T23:04:17.408Z,5.17
2022-12-15T23:07:04.913Z,5.04
2022-12-15T23:09:48.910Z,4.62
2022-12-15T23:12:31.854Z,4.64
2022-12-15T23:15:33.500Z,4.55
2022-12-15T23:18:17.946Z,5.04
2022-12-15T23:21:01.901Z,4.75
2022-12-15T23:23:47.471Z,4.99
2022-12-15T23:26:31.602Z,5.08
2022-12-15T23:29:15.634Z,4.64
2022-12-15T23:31:59.564Z,4.68
2022-12-15T23:34:43.850Z,5.11
2022-12-15T23:37:27.803Z,4.87
2022-12-15T23:40:20.037Z,5.14
2022-12-15T23:43:04.257Z,5.25
2022-12-15T23:45:55.978Z,5.11
2022-12-15T23:48:41.807Z,4.90
2022-12-15T23:51:26.006Z,5.21
2022-12-15T23:54:10.269Z,5.26
2022-12-15T23:56:55.464Z,4.92
2022-12-15T23:59:39.202Z,4.27
